Summersville, WV

11:35 PM EDT on August 31, 2015 (GMT -0400)
Summersville | | Change Station
CLOSE
Current Station
Personal Weather Station
Location: Summersville, WV
Elevation: 1932 ft
Nearby Weather Stations

Elev 1932 ft 38.30 °N, 80.84 °W | Updated 7 minutes ago

Partly Cloudy
Partly Cloudy
63.3 °F
Feels Like 63.3 °F
N
0.0
Wind Variable Wind from East

Today
High -- | Low -- °F
--% Chance of Precip.
Yesterday
High -- | Low -- °F
Precip. -- in
6:51 AM 7:54 PM
Waning Gibbous, 92% visible
Pressure 30.12 in
Visibility 10.0 miles
Clouds Mostly Cloudy 7000 ft
Dew Point 61 °F
Humidity 91%
Rainfall 0.00 in
Snow Depth Not available.
UV 0 out of 12
Pollen 9.10 out of 12
Air Quality Not available.
Flu Activity Not available.
METAR KBKW 010251Z AUTO 11003KT 10SM BKN070 18/16 A3021 RMK AO2 SLP200 T01830161 53010
Pressure 30.12 in
Visibility 10.0 miles
Clouds Mostly Cloudy 7000 ft
Dew Point 61 °F
Humidity 91%
Rainfall 0.00 in
Snow Depth Not available.
UV 0 out of 12
Pollen 9.10 out of 12
Air Quality Not available.
Flu Activity Not available.
METAR KBKW 010251Z AUTO 11003KT 10SM BKN070 18/16 A3021 RMK AO2 SLP200 T01830161 53010

10-Day Weather Forecast

×

Almanac

Astronomy

Aug. 31, 2015 Rise Set
Actual Time
Civil Twilight
Nautical Twilight
Astronomical Twilight
Moon
Length of Visible Light
Length of Day
Tomorrow will be .
, % of the Moon is Illuminated

Today's Extremes

State Highs State Lows

Community

WunderPhotos

Upload Photos

1,851,475 photos uploaded!

WunderBlogs® & News

Nearby

Air Quality

  Air Quality AQ Index Pollutant
Not available.

Snow Depth

Station Depth Elevation

Earthquake Activity

City Distance Mag. Time & Date
Minimum magnitude displayed is 2.5.

Coastal Water Temperatures

Place Temperature

Stations

Nearby Weather Stations

Station Location Temp. Windchill Dew Point Humidity Wind Precip. Elev Updated Type